Time;durP1;ratioP1;P1;durP2;ratioP2;P2;SDS_P1;SDS_P2;PMS_P1;PMS_P2;Temp;Humidity;BMP_temperature;BMP_pressure;BME280_temperature;BME280_humidity;BME280_pressure;Samples;Min_cycle;Max_cycle;Signal;HPM_P1;HPM_P2
2021/11/28 00:02:20;;;;;;;30.27;16.55;;;4.00;99.90;;;;;;6159043;23;20013;-87
2021/11/28 00:05:01;;;;;;;26.15;17.13;;;3.50;99.90;;;;;;6157782;23;20017;-89
2021/11/28 00:10:42;;;;;;;26.20;16.63;;;3.40;99.90;;;;;;6180908;23;20053;-87
2021/11/28 00:13:10;;;;;;;32.78;17.52;;;4.40;99.90;;;;;;6183214;23;20021;-89
2021/11/28 00:15:37;;;;;;;34.33;18.13;;;3.40;99.90;;;;;;6157852;23;20017;-87
2021/11/28 00:18:05;;;;;;;30.30;18.33;;;3.70;99.90;;;;;;6159157;23;20013;-89
2021/11/28 00:20:57;;;;;;;32.70;19.27;;;3.80;99.90;;;;;;6156494;23;20021;-89
2021/11/28 00:23:23;;;;;;;31.67;19.40;;;4.20;99.90;;;;;;6182968;23;20035;-90
2021/11/28 00:26:00;;;;;;;32.35;19.15;;;4.00;99.90;;;;;;6180531;23;20389;-88
2021/11/28 00:28:29;;;;;;;30.90;18.10;;;4.00;99.90;;;;;;6182716;23;20138;-89
2021/11/28 00:31:01;;;;;;;30.33;19.10;;;3.90;99.90;;;;;;6155402;23;20453;-85
2021/11/28 00:33:27;;;;;;;29.55;17.58;;;4.30;99.90;;;;;;6157367;23;20025;-86
2021/11/28 00:35:58;;;;;;;29.60;17.50;;;3.80;99.90;;;;;;6153764;23;20013;-86
2021/11/28 00:38:27;;;;;;;28.13;17.80;;;3.60;99.90;;;;;;6132692;23;20547;-88
2021/11/28 00:41:00;;;;;;;31.92;17.38;;;3.50;99.90;;;;;;6155430;23;20013;-84
2021/11/28 00:43:25;;;;;;;32.35;17.67;;;3.50;99.90;;;;;;6131634;23;20067;-85
2021/11/28 00:46:00;;;;;;;25.63;15.95;;;4.40;99.90;;;;;;6156899;23;20063;-85
2021/11/28 00:51:59;;;;;;;29.85;16.17;;;3.50;99.90;;;;;;6113132;23;20037;-85
2021/11/28 00:54:32;;;;;;;25.75;16.45;;;3.30;99.90;;;;;;6098479;23;20111;-84
2021/11/28 00:57:01;;;;;;;23.05;15.20;;;3.50;99.90;;;;;;6098898;23;20022;-86
2021/11/28 00:59:33;;;;;;;29.60;17.05;;;3.50;99.90;;;;;;6099020;23;20021;-88
2021/11/28 01:02:22;;;;;;;29.45;15.95;;;3.50;99.90;;;;;;6074802;23;20041;-86
2021/11/28 01:05:00;;;;;;;26.80;16.17;;;3.50;99.90;;;;;;6097289;23;20024;-88
2021/11/28 01:07:26;;;;;;;29.85;17.10;;;4.00;99.90;;;;;;6075030;23;20013;-86
2021/11/28 01:09:59;;;;;;;30.35;17.92;;;3.50;99.90;;;;;;6073137;23;20446;-85
2021/11/28 01:12:33;;;;;;;27.08;17.17;;;3.60;99.90;;;;;;6073560;23;20053;-88
2021/11/28 01:15:35;;;;;;;30.55;18.08;;;3.00;99.90;;;;;;6071176;23;20049;-85
2021/11/28 01:18:01;;;;;;;27.88;17.13;;;3.50;99.90;;;;;;6072669;23;20018;-88
2021/11/28 01:21:12;;;;;;;32.13;17.15;;;3.90;99.90;;;;;;6074285;23;20366;-87
2021/11/28 01:23:43;;;;;;;30.60;17.75;;;3.50;99.90;;;;;;6089222;23;20093;-88
2021/11/28 01:27:05;;;;;;;33.22;16.92;;;4.30;99.90;;;;;;6114511;23;20095;-86
2021/11/28 01:29:31;;;;;;;28.63;16.88;;;3.30;99.90;;;;;;6151435;23;20361;-85
2021/11/28 01:32:16;;;;;;;33.85;18.38;;;3.20;99.90;;;;;;6103845;23;20033;-88
2021/11/28 01:34:42;;;;;;;28.58;17.65;;;4.00;99.90;;;;;;6104047;23;20163;-89
2021/11/28 01:37:08;;;;;;;32.85;18.77;;;4.10;99.90;;;;;;6106734;23;20025;-85
2021/11/28 01:39:36;;;;;;;31.88;18.65;;;3.20;99.90;;;;;;6129247;23;20028;-86
2021/11/28 01:42:03;;;;;;;34.15;18.45;;;3.00;99.90;;;;;;6104193;23;20013;-83
2021/11/28 01:44:32;;;;;;;26.15;16.75;;;3.20;99.90;;;;;;6129857;23;20017;-84
2021/11/28 01:47:35;;;;;;;28.23;17.65;;;3.30;99.90;;;;;;6105865;23;20017;-86
2021/11/28 01:50:02;;;;;;;35.35;17.80;;;3.20;99.90;;;;;;6103598;23;20028;-87
2021/11/28 01:52:36;;;;;;;28.67;17.65;;;4.00;99.90;;;;;;6104344;23;20044;-87
2021/11/28 01:55:05;;;;;;;30.33;18.00;;;3.10;99.90;;;;;;6103082;23;20070;-86
2021/11/28 01:57:37;;;;;;;30.42;18.40;;;3.10;99.90;;;;;;6103660;23;20446;-85
2021/11/28 02:03:15;;;;;;;29.80;17.88;;;3.20;99.90;;;;;;6153220;23;20016;-83
2021/11/28 02:05:58;;;;;;;33.15;19.33;;;4.00;99.90;;;;;;6104165;23;20135;-87
2021/11/28 02:08:24;;;;;;;32.60;18.92;;;3.10;99.90;;;;;;6103883;23;20059;-86
2021/11/28 02:10:58;;;;;;;30.92;19.33;;;3.10;99.90;;;;;;6104591;23;20017;-85
2021/11/28 02:13:25;;;;;;;31.30;19.80;;;3.10;99.90;;;;;;6106119;23;20021;-84
2021/11/28 02:19:57;;;;;;;39.03;21.10;;;3.10;99.90;;;;;;6157708;23;20008;-86
2021/11/28 02:22:34;;;;;;;33.40;20.58;;;3.10;99.90;;;;;;6148678;23;20032;-87
2021/11/28 02:25:12;;;;;;;35.13;20.38;;;3.70;99.90;;;;;;6157613;23;20052;-87
2021/11/28 02:28:00;;;;;;;37.30;21.80;;;3.00;99.90;;;;;;6182455;23;20381;-88
2021/11/28 02:30:26;;;;;;;39.00;20.98;;;3.30;99.90;;;;;;6161568;23;20073;-85
2021/11/28 02:33:00;;;;;;;33.70;21.40;;;3.10;99.90;;;;;;6161694;23;20017;-86
2021/11/28 02:36:01;;;;;;;40.08;20.58;;;3.50;99.90;;;;;;6183427;23;20017;-87
2021/11/28 02:42:35;;;;;;;34.60;20.92;;;2.50;99.90;;;;;;6148144;23;20017;-85
2021/11/28 02:45:07;;;;;;;36.10;20.27;;;2.50;99.90;;;;;;6149935;23;20418;-85
2021/11/28 02:52:08;;;;;;;;;;;;;;;;;;;;;
2021/11/28 02:55:03;;;;;;;39.15;22.88;;;3.80;99.90;;;;;;6092585;23;20052;-86
2021/11/28 02:57:58;;;;;;;38.80;22.08;;;2.60;99.90;;;;;;6036586;23;20036;-87
2021/11/28 03:01:03;;;;;;;40.70;21.75;;;3.40;99.90;;;;;;6044101;23;20065;-88
2021/11/28 03:03:45;;;;;;;38.97;22.85;;;2.90;99.90;;;;;;6043005;23;20121;-87
2021/11/28 03:09:23;;;;;;;31.75;20.25;;;2.80;99.90;;;;;;6066294;23;20042;-85
2021/11/28 03:12:16;;;;;;;39.90;21.85;;;2.60;99.90;;;;;;6042060;23;20022;-86
2021/11/28 03:15:17;;;;;;;38.13;19.95;;;3.60;99.90;;;;;;6037573;23;20018;-88
2021/11/28 03:17:59;;;;;;;32.47;19.98;;;2.60;99.90;;;;;;6059143;23;20024;-85
2021/11/28 03:21:01;;;;;;;38.30;20.55;;;3.40;99.90;;;;;;6096593;23;20021;-84
2021/11/28 03:23:37;;;;;;;35.10;20.25;;;2.50;99.90;;;;;;6074343;23;20029;-87
2021/11/28 03:26:13;;;;;;;39.17;20.73;;;2.40;99.90;;;;;;6075032;23;20092;-86
2021/11/28 03:29:09;;;;;;;37.25;20.52;;;2.50;99.90;;;;;;6076207;23;20036;-88
2021/11/28 03:34:59;;;;;;;41.17;21.25;;;2.30;99.90;;;;;;6062466;23;20055;-87
2021/11/28 03:37:32;;;;;;;40.95;21.80;;;2.20;99.90;;;;;;6017198;23;20098;-88
2021/11/28 03:39:59;;;;;;;43.22;21.45;;;2.20;99.90;;;;;;6040438;23;20015;-84
2021/11/28 03:42:25;;;;;;;40.95;21.10;;;2.30;99.90;;;;;;6065697;23;20359;-87
2021/11/28 03:44:57;;;;;;;37.70;20.45;;;2.50;99.90;;;;;;6063940;23;20122;-87
2021/11/28 03:51:14;;;;;;;41.22;21.30;;;2.00;99.90;;;;;;6064127;23;20014;-87
2021/11/28 03:53:58;;;;;;;39.28;20.58;;;2.00;99.90;;;;;;6062976;23;20578;-87
2021/11/28 03:56:24;;;;;;;44.20;22.13;;;1.90;99.90;;;;;;6063894;23;20400;-87
2021/11/28 03:58:50;;;;;;;48.17;22.02;;;1.90;99.90;;;;;;6063081;23;20088;-85
2021/11/28 04:01:20;;;;;;;35.33;19.33;;;3.00;99.90;;;;;;6040522;23;20447;-87
2021/11/28 04:03:58;;;;;;;44.63;19.92;;;2.50;99.90;;;;;;6039686;23;20046;-87
2021/11/28 04:06:24;;;;;;;38.70;20.95;;;1.20;99.90;;;;;;6040024;23;20015;-86
2021/11/28 04:09:00;;;;;;;36.90;19.98;;;2.90;99.90;;;;;;6063502;23;20015;-85
2021/11/28 04:11:25;;;;;;;35.15;20.70;;;2.80;99.90;;;;;;6160188;23;20017;-86
2021/11/28 04:13:57;;;;;;;44.42;22.30;;;1.80;99.90;;;;;;6158377;23;20461;-86
2021/11/28 04:16:44;;;;;;;35.75;21.08;;;2.20;99.90;;;;;;6158641;23;20402;-85
2021/11/28 04:19:10;;;;;;;44.57;23.77;;;2.40;99.90;;;;;;6157962;23;20020;-84
2021/11/28 04:21:37;;;;;;;41.25;22.95;;;2.80;99.90;;;;;;6158802;23;20471;-88
2021/11/28 04:24:03;;;;;;;43.38;23.13;;;2.90;99.90;;;;;;6183209;23;20056;-88
2021/11/28 04:26:29;;;;;;;40.08;21.83;;;1.70;99.90;;;;;;6183837;23;20112;-85
2021/11/28 04:28:58;;;;;;;43.78;24.05;;;1.70;99.90;;;;;;6157952;23;20017;-83
2021/11/28 04:31:46;;;;;;;41.95;23.63;;;2.60;99.90;;;;;;6159031;23;20042;-85
2021/11/28 04:34:16;;;;;;;53.28;25.10;;;1.70;99.90;;;;;;6157025;23;20017;-85
2021/11/28 04:36:42;;;;;;;57.65;25.95;;;2.60;99.90;;;;;;6158247;23;20191;-87
2021/11/28 04:39:08;;;;;;;55.22;26.83;;;2.60;99.90;;;;;;6157113;23;20080;-83
2021/11/28 04:41:34;;;;;;;63.78;26.05;;;2.40;99.90;;;;;;6157749;23;20013;-85
2021/11/28 04:44:00;;;;;;;52.17;28.05;;;2.40;99.90;;;;;;6157282;23;20013;-85
2021/11/28 04:46:34;;;;;;;64.28;26.92;;;2.20;99.90;;;;;;6157161;23;20036;-84
2021/11/28 04:49:02;;;;;;;64.73;27.33;;;1.60;99.90;;;;;;6156251;23;20073;-84
2021/11/28 04:51:28;;;;;;;52.75;25.77;;;2.40;99.90;;;;;;6158104;23;20035;-84
2021/11/28 04:53:57;;;;;;;68.88;27.23;;;2.30;99.90;;;;;;6156683;23;20012;-86
2021/11/28 04:56:25;;;;;;;62.90;25.77;;;2.40;99.90;;;;;;6157579;23;20017;-84
2021/11/28 04:58:56;;;;;;;90.03;25.52;;;2.60;99.90;;;;;;6156229;23;20013;-85
2021/11/28 05:01:25;;;;;;;312.42;29.25;;;2.30;99.90;;;;;;6158123;23;20040;-85
2021/11/28 05:03:54;;;;;;;73.55;26.13;;;2.00;99.90;;;;;;6159808;23;20460;-83
2021/11/28 05:06:28;;;;;;;446.17;32.60;;;1.60;99.90;;;;;;6183933;23;20311;-83
2021/11/28 05:09:00;;;;;;;704.70;33.40;;;1.60;99.90;;;;;;6159452;23;20013;-84
2021/11/28 05:48:38;;;;;;;111.53;18.02;;;1.20;99.90;;;;;;6248393;22;1389058;-85
2021/11/28 05:51:05;;;;;;;44.70;18.70;;;2.00;99.90;;;;;;6212012;22;20019;-85
2021/11/28 05:53:32;;;;;;;34.33;19.42;;;1.30;99.90;;;;;;6229126;22;20015;-84
2021/11/28 05:55:58;;;;;;;31.75;18.38;;;1.70;99.90;;;;;;6255718;22;20015;-86
2021/11/28 05:58:24;;;;;;;38.45;20.65;;;1.30;99.90;;;;;;6256303;22;20047;-86
2021/11/28 06:00:55;;;;;;;35.97;19.40;;;2.00;99.90;;;;;;6230518;22;20038;-83
2021/11/28 06:03:20;;;;;;;30.33;18.75;;;1.40;99.90;;;;;;6228841;22;20041;-83
2021/11/28 06:05:47;;;;;;;31.90;18.75;;;2.20;99.90;;;;;;6231138;22;20062;-86
2021/11/28 06:08:13;;;;;;;37.97;19.55;;;2.40;99.90;;;;;;6230468;22;20008;-83
2021/11/28 06:10:39;;;;;;;29.02;17.15;;;2.40;99.90;;;;;;6232124;22;20412;-83
2021/11/28 06:13:08;;;;;;;30.48;17.48;;;1.40;99.90;;;;;;6230752;22;20015;-86
2021/11/28 06:15:37;;;;;;;30.15;17.83;;;1.00;99.90;;;;;;6231981;22;20380;-85
2021/11/28 06:18:05;;;;;;;28.77;16.92;;;1.40;99.90;;;;;;6229958;22;20019;-81
2021/11/28 06:20:31;;;;;;;26.10;16.70;;;2.60;99.90;;;;;;6283175;22;20153;-83
2021/11/28 06:22:57;;;;;;;25.63;16.42;;;2.40;99.90;;;;;;6230423;22;20430;-84
2021/11/28 06:25:22;;;;;;;27.67;16.88;;;1.50;99.90;;;;;;6229955;22;20043;-83
2021/11/28 06:27:48;;;;;;;30.88;17.58;;;1.50;99.90;;;;;;6230600;22;20034;-84
2021/11/28 06:30:14;;;;;;;27.77;16.75;;;1.50;99.90;;;;;;6230429;22;20296;-83
2021/11/28 06:32:59;;;;;;;26.40;15.93;;;1.40;99.90;;;;;;6230327;22;20012;-82
2021/11/28 06:35:25;;;;;;;24.45;14.80;;;1.50;99.90;;;;;;6230675;22;20019;-84
2021/11/28 06:37:52;;;;;;;26.27;14.40;;;1.50;99.90;;;;;;6230481;22;20498;-83
2021/11/28 06:40:17;;;;;;;25.40;14.90;;;2.20;99.90;;;;;;6255723;22;20018;-82
2021/11/28 06:42:44;;;;;;;21.80;12.68;;;1.60;99.90;;;;;;6230502;22;20004;-81
2021/11/28 06:45:10;;;;;;;20.27;10.98;;;1.90;99.90;;;;;;6230359;22;20026;-82
2021/11/28 06:47:36;;;;;;;20.65;10.73;;;1.70;99.90;;;;;;6228238;22;20016;-82
2021/11/28 06:50:02;;;;;;;18.15;10.38;;;2.70;99.90;;;;;;6217423;23;20016;-83
2021/11/28 06:52:28;;;;;;;19.63;9.18;;;2.60;99.90;;;;;;6245732;22;20008;-82
2021/11/28 06:55:00;;;;;;;16.40;9.02;;;1.80;99.90;;;;;;6242999;23;20015;-82
2021/11/28 06:57:26;;;;;;;14.60;8.60;;;2.60;99.90;;;;;;6242587;23;20048;-82
2021/11/28 06:59:52;;;;;;;12.73;7.63;;;2.40;99.90;;;;;;6245175;22;20312;-82
2021/11/28 07:02:20;;;;;;;14.68;8.10;;;3.00;99.90;;;;;;6218939;23;20273;-82
2021/11/28 07:04:59;;;;;;;17.90;8.10;;;1.70;99.90;;;;;;6218742;23;20038;-82
2021/11/28 07:07:26;;;;;;;13.70;7.47;;;2.70;99.90;;;;;;6218456;23;20020;-81
2021/11/28 07:09:52;;;;;;;16.27;8.73;;;2.10;99.90;;;;;;6244312;23;20054;-84
2021/11/28 07:12:18;;;;;;;15.07;8.68;;;3.10;99.90;;;;;;6217266;23;20020;-81
2021/11/28 07:14:50;;;;;;;12.80;7.97;;;2.00;99.90;;;;;;6227602;23;20122;-82
2021/11/28 07:21:00;;;;;;;14.65;8.48;;;2.10;99.90;;;;;;6258731;23;20058;-82
2021/11/28 07:23:31;;;;;;;17.58;10.68;;;2.50;99.90;;;;;;6229246;23;20015;-84
2021/11/28 07:26:00;;;;;;;23.67;12.68;;;2.30;99.90;;;;;;6228430;23;20012;-84
2021/11/28 07:28:26;;;;;;;17.92;9.70;;;2.60;99.90;;;;;;6229335;23;20020;-83
2021/11/28 07:30:55;;;;;;;16.42;9.23;;;2.70;99.90;;;;;;6224468;23;20046;-81
2021/11/28 07:33:21;;;;;;;15.23;8.93;;;2.60;99.90;;;;;;6218850;23;20397;-83
2021/11/28 07:35:46;;;;;;;12.57;7.20;;;2.00;99.90;;;;;;6245092;23;20008;-83
2021/11/28 07:38:12;;;;;;;14.00;7.18;;;2.20;99.90;;;;;;6223223;23;20101;-82
2021/11/28 07:40:38;;;;;;;12.27;6.10;;;2.10;99.90;;;;;;6243965;23;20008;-82
2021/11/28 07:43:04;;;;;;;12.50;6.72;;;2.20;99.90;;;;;;6245665;22;20020;-84
2021/11/28 07:45:29;;;;;;;11.05;6.38;;;2.30;99.90;;;;;;6243726;23;20087;-83
2021/11/28 07:47:58;;;;;;;9.85;6.15;;;2.90;99.90;;;;;;6217936;23;20030;-81
2021/11/28 07:50:25;;;;;;;12.65;5.95;;;2.50;99.90;;;;;;6217955;23;20020;-84
2021/11/28 07:52:52;;;;;;;9.40;5.28;;;3.20;99.90;;;;;;6218454;23;20020;-82
2021/11/28 07:55:20;;;;;;;9.38;6.10;;;3.20;99.90;;;;;;6218238;23;20388;-82
2021/11/28 07:57:46;;;;;;;9.20;5.72;;;2.70;99.90;;;;;;6243030;23;20016;-83
2021/11/28 08:00:13;;;;;;;10.93;6.97;;;3.40;99.90;;;;;;6243459;23;20019;-82
2021/11/28 08:06:04;;;;;;;13.90;7.22;;;2.80;99.90;;;;;;6244054;23;20020;-83
2021/11/28 08:08:33;;;;;;;11.90;7.82;;;2.80;99.90;;;;;;6219372;23;20023;-82
2021/11/28 08:11:00;;;;;;;16.70;8.23;;;2.90;99.90;;;;;;6246230;23;20015;-83
2021/11/28 08:13:26;;;;;;;12.55;8.48;;;3.00;99.90;;;;;;6244028;23;20043;-84
2021/11/28 08:15:52;;;;;;;20.02;8.90;;;3.30;99.90;;;;;;6244418;23;20012;-84
2021/11/28 08:18:18;;;;;;;13.07;8.90;;;3.00;99.90;;;;;;6218165;23;20016;-82
2021/11/28 08:20:43;;;;;;;16.50;9.13;;;3.80;99.90;;;;;;6244484;23;20305;-84
2021/11/28 08:23:09;;;;;;;16.60;9.27;;;3.80;99.90;;;;;;6244710;23;20082;-81
2021/11/28 08:25:35;;;;;;;16.60;8.70;;;3.40;99.90;;;;;;6243574;23;20016;-84
2021/11/28 08:28:06;;;;;;;16.08;8.63;;;3.10;99.90;;;;;;6217539;23;20397;-85
2021/11/28 08:30:32;;;;;;;12.95;7.65;;;3.30;99.90;;;;;;6218331;23;20020;-84
2021/11/28 08:32:58;;;;;;;11.25;6.63;;;3.60;99.90;;;;;;6217154;23;20012;-85
2021/11/28 08:35:23;;;;;;;11.85;6.60;;;3.90;99.90;;;;;;6217858;23;20375;-79
2021/11/28 08:37:49;;;;;;;8.82;6.15;;;3.30;99.90;;;;;;6239773;23;20016;-74
2021/11/28 08:40:17;;;;;;;11.75;5.57;;;3.30;99.90;;;;;;6242576;23;20375;-76
2021/11/28 08:42:46;;;;;;;12.85;5.78;;;3.40;99.90;;;;;;6243615;23;20008;-83
2021/11/28 08:45:13;;;;;;;13.07;5.25;;;3.50;99.90;;;;;;6218051;23;20443;-82
2021/11/28 08:47:40;;;;;;;6.47;4.47;;;3.50;99.90;;;;;;6217102;23;20016;-82
2021/11/28 08:50:08;;;;;;;5.45;4.10;;;3.60;99.90;;;;;;6241343;23;20352;-86
2021/11/28 08:52:33;;;;;;;5.05;3.78;;;3.60;99.90;;;;;;6243942;23;20016;-86
2021/11/28 08:54:59;;;;;;;4.90;3.05;;;3.70;99.90;;;;;;6217158;23;20104;-86
2021/11/28 08:57:25;;;;;;;5.32;3.30;;;4.30;99.90;;;;;;6243010;23;20044;-84
2021/11/28 08:59:51;;;;;;;6.15;2.35;;;4.40;99.90;;;;;;6242845;23;20035;-82
2021/11/28 09:02:24;;;;;;;4.53;2.00;;;3.80;99.90;;;;;;6217418;23;20047;-83
2021/11/28 09:04:50;;;;;;;10.32;2.05;;;3.80;99.90;;;;;;6241117;23;20012;-88
2021/11/28 09:07:17;;;;;;;8.90;2.20;;;4.60;99.90;;;;;;6219100;23;20019;-80
2021/11/28 09:09:43;;;;;;;2.63;1.38;;;4.80;99.90;;;;;;6217992;23;20048;-86
2021/11/28 09:12:08;;;;;;;2.65;1.65;;;4.90;99.90;;;;;;6217775;23;20016;-87
2021/11/28 09:14:34;;;;;;;2.90;1.38;;;4.00;99.90;;;;;;6241969;23;20258;-86
2021/11/28 09:17:00;;;;;;;3.17;1.70;;;4.30;99.90;;;;;;6241489;23;20023;-78
2021/11/28 09:21:51;;;;;;;0.95;0.70;;;4.40;99.90;;;;;;6216117;23;20433;-80
2021/11/28 09:24:35;;;;;;;2.10;0.57;;;4.20;99.90;;;;;;6215262;23;20012;-79
2021/11/28 09:27:06;;;;;;;1.17;0.30;;;4.30;99.90;;;;;;6244564;22;20016;-78
2021/11/28 09:29:38;;;;;;;1.48;0.40;;;4.20;99.90;;;;;;6226261;23;20107;-78
2021/11/28 09:35:31;;;;;;;2.53;0.50;;;4.20;99.90;;;;;;6248672;23;20020;-77
2021/11/28 09:37:57;;;;;;;0.98;0.40;;;4.40;99.90;;;;;;6251074;23;20016;-78
2021/11/28 09:40:23;;;;;;;1.75;0.50;;;4.20;99.90;;;;;;6224963;23;20095;-77
2021/11/28 09:42:55;;;;;;;3.10;0.47;;;4.20;99.90;;;;;;6249799;23;20012;-77
2021/11/28 09:45:23;;;;;;;6.18;0.50;;;4.40;99.90;;;;;;6240083;23;20012;-80
2021/11/28 09:47:50;;;;;;;2.13;0.60;;;4.70;99.90;;;;;;6237747;23;20022;-80
2021/11/28 09:50:17;;;;;;;3.97;0.50;;;4.50;99.90;;;;;;6241336;23;20020;-82
2021/11/28 09:52:44;;;;;;;1.90;0.60;;;4.50;99.90;;;;;;6239432;23;20424;-80
2021/11/28 09:55:12;;;;;;;5.93;1.02;;;4.50;99.90;;;;;;6238323;23;20019;-82
2021/11/28 09:57:41;;;;;;;2.70;0.50;;;4.60;99.90;;;;;;6214329;23;20028;-79
2021/11/28 10:00:10;;;;;;;2.08;0.68;;;4.50;99.90;;;;;;6213697;23;20004;-80
2021/11/28 10:02:37;;;;;;;1.20;0.52;;;4.60;99.90;;;;;;6239182;23;20012;-79
2021/11/28 10:05:06;;;;;;;2.75;0.60;;;4.80;99.90;;;;;;6238958;23;20020;-81
2021/11/28 10:07:32;;;;;;;2.33;0.30;;;4.60;99.90;;;;;;6213410;23;20022;-81
2021/11/28 10:09:57;;;;;;;1.38;0.35;;;4.50;99.90;;;;;;6214356;23;20017;-83
2021/11/28 10:12:24;;;;;;;1.10;0.22;;;4.50;99.90;;;;;;6239042;23;20013;-78
2021/11/28 10:15:05;;;;;;;0.50;0.22;;;4.40;99.90;;;;;;6238955;23;20016;-80
2021/11/28 10:17:34;;;;;;;1.98;0.40;;;4.40;99.90;;;;;;6213344;23;20016;-78
2021/11/28 10:20:02;;;;;;;2.33;0.38;;;4.40;99.90;;;;;;6211752;23;20013;-78
2021/11/28 10:22:28;;;;;;;0.95;0.30;;;4.20;99.90;;;;;;6236812;23;20008;-76
2021/11/28 10:25:05;;;;;;;1.45;0.40;;;4.20;99.90;;;;;;6214713;23;20091;-76
2021/11/28 10:27:37;;;;;;;1.63;0.35;;;4.10;99.90;;;;;;6242401;23;20020;-76
2021/11/28 10:30:05;;;;;;;3.38;0.40;;;4.00;99.90;;;;;;6215256;23;20062;-76
2021/11/28 10:32:31;;;;;;;1.70;0.55;;;4.00;99.90;;;;;;6213044;23;20095;-77
2021/11/28 10:34:57;;;;;;;0.80;0.30;;;4.00;99.90;;;;;;6237535;23;20043;-77
2021/11/28 10:37:23;;;;;;;3.45;0.45;;;4.00;99.90;;;;;;6214969;23;20032;-76
2021/11/28 10:39:55;;;;;;;1.52;0.43;;;3.90;99.90;;;;;;6240060;23;20019;-76
2021/11/28 10:42:33;;;;;;;2.03;0.55;;;3.90;99.90;;;;;;6218156;23;20432;-76
2021/11/28 10:45:15;;;;;;;3.95;0.65;;;3.90;99.90;;;;;;6240260;23;20511;-79
2021/11/28 10:47:55;;;;;;;1.52;0.50;;;3.90;99.90;;;;;;6215574;23;20047;-80
2021/11/28 10:50:33;;;;;;;1.80;0.60;;;4.00;99.90;;;;;;6214018;23;20329;-78
2021/11/28 10:53:19;;;;;;;5.18;0.80;;;4.00;99.90;;;;;;6242482;23;20023;-79
2021/11/28 10:55:56;;;;;;;4.90;1.65;;;4.10;99.90;;;;;;6241254;23;20107;-76
2021/11/28 10:58:27;;;;;;;3.90;0.68;;;4.20;99.90;;;;;;6241016;23;20016;-82
2021/11/28 11:00:53;;;;;;;6.97;1.20;;;4.30;99.90;;;;;;6215158;23;20044;-79
2021/11/28 11:03:33;;;;;;;3.03;1.00;;;4.30;99.90;;;;;;6241450;23;20016;-77
2021/11/28 11:06:17;;;;;;;5.20;0.45;;;4.40;99.90;;;;;;6242594;23;20023;-78
2021/11/28 11:08:44;;;;;;;4.00;0.57;;;4.50;99.90;;;;;;6240362;23;20023;-78
2021/11/28 11:11:13;;;;;;;5.20;0.80;;;4.50;99.90;;;;;;6214162;23;20385;-80
2021/11/28 11:13:56;;;;;;;2.67;0.55;;;4.50;99.90;;;;;;6240727;23;20020;-78
2021/11/28 11:16:34;;;;;;;4.18;0.88;;;4.60;99.90;;;;;;6238784;23;20057;-78
2021/11/28 11:19:29;;;;;;;1.50;0.32;;;4.60;99.90;;;;;;6211986;23;20020;-77
2021/11/28 11:22:00;;;;;;;8.65;0.93;;;4.30;99.90;;;;;;6213601;23;20092;-81
2021/11/28 11:24:26;;;;;;;7.63;0.68;;;4.10;99.90;;;;;;6217210;23;20023;-77
2021/11/28 11:26:52;;;;;;;5.15;0.52;;;4.00;99.90;;;;;;6213993;23;20023;-78
2021/11/28 11:29:18;;;;;;;4.22;0.80;;;3.80;99.90;;;;;;6239419;23;20012;-77
2021/11/28 11:31:54;;;;;;;4.20;0.75;;;3.90;99.90;;;;;;6239905;23;20510;-77
2021/11/28 11:34:23;;;;;;;2.45;0.70;;;3.80;99.90;;;;;;6213369;23;20012;-77
2021/11/28 11:37:02;;;;;;;3.78;0.88;;;3.70;99.90;;;;;;6240257;23;20023;-79
2021/11/28 11:39:30;;;;;;;2.85;0.68;;;3.70;99.90;;;;;;6216068;23;20096;-80
2021/11/28 11:41:56;;;;;;;3.28;0.98;;;3.70;99.90;;;;;;6216871;23;20421;-79
2021/11/28 11:44:25;;;;;;;4.78;1.00;;;3.80;99.90;;;;;;6240819;23;20008;-80
2021/11/28 11:46:51;;;;;;;4.00;0.82;;;3.80;99.90;;;;;;6239077;23;20306;-78
2021/11/28 11:49:18;;;;;;;2.28;0.43;;;3.90;99.90;;;;;;6211542;23;20078;-76
2021/11/28 11:51:46;;;;;;;3.55;0.30;;;4.00;99.90;;;;;;6239055;23;20016;-78
2021/11/28 11:54:25;;;;;;;2.85;0.40;;;4.00;99.90;;;;;;6239277;23;20061;-77
2021/11/28 11:57:23;;;;;;;7.15;0.68;;;4.00;99.90;;;;;;6214271;23;20019;-81
2021/11/28 12:00:01;;;;;;;3.78;0.50;;;4.10;99.90;;;;;;6237056;23;20066;-79
2021/11/28 12:02:34;;;;;;;3.22;0.40;;;4.10;99.90;;;;;;6214815;23;20150;-79
2021/11/28 12:05:00;;;;;;;4.95;0.50;;;4.00;99.90;;;;;;6240669;23;20008;-76
2021/11/28 12:07:49;;;;;;;1.63;0.30;;;4.00;99.90;;;;;;6215146;23;20016;-77
2021/11/28 12:10:33;;;;;;;5.32;0.60;;;4.00;99.90;;;;;;6239042;23;20020;-78
2021/11/28 12:13:02;;;;;;;2.08;0.40;;;4.10;99.90;;;;;;6238422;23;20012;-80
2021/11/28 12:15:36;;;;;;;3.03;0.35;;;3.90;99.90;;;;;;6236943;23;20098;-80
2021/11/28 12:18:04;;;;;;;3.72;0.70;;;3.90;99.90;;;;;;6213058;23;20017;-78
2021/11/28 12:20:55;;;;;;;7.95;0.82;;;4.00;99.90;;;;;;6213907;23;20312;-79
2021/11/28 12:23:42;;;;;;;3.20;0.50;;;3.90;99.90;;;;;;6237324;23;20012;-78
2021/11/28 12:26:28;;;;;;;3.63;0.73;;;3.90;99.90;;;;;;6240133;23;20008;-78
2021/11/28 12:28:58;;;;;;;3.25;0.85;;;3.90;99.90;;;;;;6211489;23;20015;-79
2021/11/28 12:31:33;;;;;;;1.30;0.85;;;3.80;99.90;;;;;;6241127;23;20008;-79
2021/11/28 12:34:04;;;;;;;3.25;1.30;;;3.80;99.90;;;;;;6240337;23;20012;-78
2021/11/28 12:36:38;;;;;;;3.88;1.00;;;4.10;99.90;;;;;;6241223;23;20340;-76
2021/11/28 12:39:19;;;;;;;6.28;1.33;;;3.70;99.90;;;;;;6239473;23;20688;-76
2021/11/28 12:41:55;;;;;;;4.82;1.02;;;3.70;99.90;;;;;;6240860;23;20070;-77
2021/11/28 12:44:28;;;;;;;3.33;1.00;;;3.80;99.90;;;;;;6212199;23;20016;-76
2021/11/28 12:47:27;;;;;;;2.47;1.10;;;3.90;99.90;;;;;;6239724;23;20094;-77
2021/11/28 12:49:54;;;;;;;3.47;1.08;;;4.10;99.90;;;;;;6151656;23;20032;-77
2021/11/28 12:52:23;;;;;;;3.67;1.00;;;4.20;99.90;;;;;;6151092;23;20048;-79
2021/11/28 12:57:34;;;;;;;5.25;0.60;;;4.20;99.90;;;;;;6152473;23;20461;-77
2021/11/28 13:00:19;;;;;;;4.40;0.60;;;4.20;99.90;;;;;;6151475;23;20013;-78
2021/11/28 13:02:52;;;;;;;3.75;1.15;;;4.10;99.90;;;;;;6152137;23;20028;-80
2021/11/28 13:05:29;;;;;;;3.70;0.80;;;4.20;99.90;;;;;;6127579;23;20023;-80
2021/11/28 13:08:15;;;;;;;6.55;1.00;;;4.20;99.90;;;;;;6151222;23;20017;-79
2021/11/28 13:10:46;;;;;;;3.58;0.75;;;4.30;99.90;;;;;;6151003;23;20096;-81
2021/11/28 13:13:27;;;;;;;4.43;0.98;;;4.30;99.90;;;;;;6178333;23;20431;-79
2021/11/28 13:15:55;;;;;;;2.53;0.80;;;4.30;99.90;;;;;;6151527;23;20017;-79
2021/11/28 13:18:24;;;;;;;2.50;0.98;;;4.30;99.90;;;;;;6152315;23;20079;-79
2021/11/28 13:20:54;;;;;;;5.10;1.13;;;4.20;99.90;;;;;;6151166;23;20024;-79
2021/11/28 13:23:22;;;;;;;4.53;1.15;;;4.20;99.90;;;;;;6127828;23;20505;-78
2021/11/28 13:25:51;;;;;;;3.40;0.95;;;4.10;99.90;;;;;;6205032;23;20012;-81
2021/11/28 13:28:28;;;;;;;2.72;0.90;;;4.20;99.90;;;;;;6238190;23;20020;-80
2021/11/28 13:30:56;;;;;;;7.10;2.45;;;4.20;99.90;;;;;;6239912;23;20305;-79
2021/11/28 13:33:29;;;;;;;5.43;1.10;;;4.10;99.90;;;;;;6238273;23;20059;-79
2021/11/28 13:36:04;;;;;;;5.70;1.75;;;4.20;99.90;;;;;;6241208;23;20059;-81
2021/11/28 13:38:45;;;;;;;2.50;1.38;;;4.20;99.90;;;;;;6241193;23;20015;-79
2021/11/28 13:41:17;;;;;;;10.23;4.15;;;4.20;99.90;;;;;;6240396;23;20459;-80
2021/11/28 13:44:14;;;;;;;3.97;1.10;;;4.10;99.90;;;;;;6240756;23;20013;-81
2021/11/28 13:46:48;;;;;;;4.72;1.40;;;4.10;99.90;;;;;;6223197;23;20506;-78
2021/11/28 13:49:21;;;;;;;2.50;1.10;;;4.00;99.90;;;;;;6240057;23;20336;-80
2021/11/28 13:51:57;;;;;;;3.90;1.02;;;3.90;99.90;;;;;;6242233;23;20027;-79
2021/11/28 13:54:39;;;;;;;4.22;1.17;;;3.90;99.90;;;;;;6240735;23;20020;-78
2021/11/28 13:57:04;;;;;;;3.72;1.00;;;3.80;99.90;;;;;;6243452;22;20090;-77
2021/11/28 13:59:39;;;;;;;5.05;1.00;;;3.80;99.90;;;;;;6241389;23;20012;-78
2021/11/28 14:02:12;;;;;;;5.40;0.90;;;3.70;99.90;;;;;;6242464;23;20425;-79
2021/11/28 14:04:40;;;;;;;3.90;0.80;;;3.60;99.90;;;;;;6216881;23;20407;-82
2021/11/28 14:07:18;;;;;;;5.88;1.20;;;3.70;99.90;;;;;;6241895;23;20034;-78
2021/11/28 14:09:47;;;;;;;5.45;1.00;;;3.90;99.90;;;;;;6242797;23;20016;-78
2021/11/28 14:12:33;;;;;;;2.50;0.70;;;3.70;99.90;;;;;;6215557;23;20377;-76
2021/11/28 14:15:07;;;;;;;1.67;0.50;;;3.80;99.90;;;;;;6217144;23;20495;-77
2021/11/28 14:17:34;;;;;;;2.00;0.50;;;3.90;99.90;;;;;;6241364;23;20016;-77
2021/11/28 14:20:10;;;;;;;4.88;0.50;;;3.80;99.90;;;;;;6241852;23;20559;-80
2021/11/28 14:22:41;;;;;;;2.08;0.40;;;3.80;99.90;;;;;;6242899;23;20019;-80
2021/11/28 14:25:35;;;;;;;3.85;0.80;;;3.70;99.90;;;;;;6242998;23;20012;-80
2021/11/28 14:28:36;;;;;;;2.85;1.10;;;3.60;99.90;;;;;;6242102;23;20043;-80
2021/11/28 14:31:07;;;;;;;4.32;0.63;;;3.60;99.90;;;;;;6217626;23;20057;-80
2021/11/28 14:33:39;;;;;;;1.25;0.20;;;3.70;99.90;;;;;;6242166;23;20016;-79
2021/11/28 14:36:17;;;;;;;1.77;0.40;;;3.70;99.90;;;;;;6242540;23;20020;-79
2021/11/28 14:38:48;;;;;;;1.65;0.50;;;3.70;99.90;;;;;;6218262;23;20016;-80
2021/11/28 14:41:23;;;;;;;4.78;0.40;;;3.70;99.90;;;;;;6218052;23;20437;-80